Terminal Aerodrome Forecast
Issued by NWS Denver/Boulder, CO

Home | Current Version | Previous Version | Text Only | Print | Product List | Glossary On
Versions: 1 2 3 4 5 6 7 8 9 10 11 12 13 14 15 16 17 18 19 20 21 22 23 24 25 26 27 28 29 30 31 32 33 34 35 36 37 38 39 40 41 42 43 44 45 46 47 48 49 50
000
FTUS45 KBOU 040728 AAA
TAFDEN
TAF AMD
KDEN 040728Z 0407/0512 03010KT 3SM -SN BR SCT010 OVC024
      TEMPO 0407/0409 2SM -SN BR BKN010
     FM041300 06008KT P6SM VCSH SCT018 SCT025 BKN040
     FM041800 07008KT P6SM FEW025 BKN060
     FM042100 11008KT P6SM FEW030 SCT060
     FM050200 16009KT P6SM SKC
     FM050500 21011KT P6SM SKC=

USA.gov is the U.S. government's official web portal to all federal, state and local government web resources and services.